Main page
METAR-TAF:

METAR-TAF

Airports :

Funafuti, Tuvalu

Funafuti International Airport

latitude: 08-31S, longitude: 179-13E, elevation: 1 m

Current weather observation

The report was made 29 minutes ago, at 16:00 UTC
Wind 5 kt from the North
Temperature 28°C
Humidity 74%
Pressure 1005 hPa
Visibility 10 km or more
Few clouds at a height of 2000 ft

METAR: NGFU 241600Z 36005KT 9999 FEW020 28/23 Q1005

Time: 04:29 (16:29 UTC)

Forecast

The report was made 5 hours and 21 minutes ago, at 11:08 UTC
Forecast valid from 24 at 12 UTC to 25 at 12 UTC
Wind 8 kt from the North/Northeast
Visibility 10 km or more
Scattered clouds at a height of 2000 ft

TAF: NGFU 241108Z 2412/2512 03008KT 9999 SCT020

Weather observations and forecasts of more than 4000 airports (METAR and TAF reports).

The available stations are represented by yellow and red dots on the map.

Hover mouse over dot to see the name of the station.

Then click to see weather observations and forecasts.

To change the map : click on the green buttons with a black cross to zoom in, on the green button with a dash to zoom out, or on the green arrows for adjacent maps.


METAR-TAF: